Kula, HI (96790)

6:12 AM HST on December 28, 2014 (GMT -1000)
Lower Kula | Change Station
CLOSE
Current Station
Personal Weather Station
Location: Kula, HI
Elevation: 2336 ft
Nearby Weather Stations

Elev 2336 ft 20.76 °N, 156.34 °W | Updated 2 minutes ago

Rain
Rain
59.5 °F
Feels Like 59.5 °F
N
7.0
Wind Variable Wind from NNE
Gusts 7.0 mph

Today
High -- | Low -- °F
--% Chance of Precip.
Yesterday
High -- | Low -- °F
Precip. -- in
7:00 AM 5:53 PM
Waxing Crescent, 49% visible
Pressure 29.92 in
Visibility 10.0 miles
Clouds Clear
Dew Point 53 °F
Humidity 80%
Rainfall 0.00 in
Snow Depth Not available.
UV out of 12
Pollen Not available.
Air Quality Not available.
Flu Activity Not available.
METAR PHNY 281556Z AUTO 04015G21KT 10SM CLR 17/12 A2995 RMK AO2 TSNO T01720122 SLP130 $

More Conditions Fewer Conditions

Pressure 29.92 in
Visibility 10.0 miles
Clouds Clear
Dew Point 53 °F
Humidity 80%
Rainfall 0.00 in
Snow Depth Not available.
UV out of 12
Pollen Not available.
Air Quality Not available.
Flu Activity Not available.
METAR PHNY 281556Z AUTO 04015G21KT 10SM CLR 17/12 A2995 RMK AO2 TSNO T01720122 SLP130 $

More Conditions Fewer Conditions

10-Day Weather Forecast

Almanac

Astronomy

Dec. 28, 2014 Rise Set
Actual Time
Civil Twilight
Nautical Twilight
Astronomical Twilight
Moon
Length of Visible Light
Length of Day
Tomorrow will be .
, % of the Moon is Illuminated

Today's Extremes

State Highs State Lows

Community

WunderPhotos

Upload Photos

1,781,318 photos uploaded!

WunderBlogs® & News

Nearby

Air Quality

  Air Quality AQ Index Pollutant
Not available.

Snow Depth

Station Depth Elevation

Earthquake Activity

City Distance Mag. Time & Date
Minimum magnitude displayed is 2.5.

Coastal Water Temperatures

Place Temperature

Nearby Weather Stations